AUA61HK LOWW-LDSP
Flight info
| Callsign | AUA61HK |
|---|---|
| Flight time | 0h 50m |
| Altitude | 36000 |
| Route | STEIN DCT NOHAT DCT NEKIN DCT NIVES DCT NUPSO |
| Aircraft | A320/M-SDE3FGHIRWY/LB1 |
Departure
| Time | 2026-05-06 14:19 |
|---|---|
| Airport | Vienna International Airport (LOWW) |
Arrival
| Time | 2026-05-06 15:09 |
|---|---|
| Airport | Split Saint Jerome Airport (LDSP) |
| Time | Latitude | Longitude | Altitude | Speed | Heading |
|---|---|---|---|---|---|
| 2026-05-06 13:52 | 48.11656 | 16.56954 | 615 ft | 0 kts | 25° |
| 2026-05-06 14:10 | 48.11643 | 16.56945 | 622 ft | 3 kts | 28° |
| 2026-05-06 14:10 | 48.11626 | 16.56930 | 615 ft | 3 kts | 34° |
| 2026-05-06 14:10 | 48.11609 | 16.56911 | 617 ft | 3 kts | 45° |
| 2026-05-06 14:11 | 48.11597 | 16.56889 | 624 ft | 3 kts | 72° |
| 2026-05-06 14:11 | 48.11596 | 16.56867 | 621 ft | 1 kts | 115° |
| 2026-05-06 14:11 | 48.11598 | 16.56860 | 619 ft | 0 kts | 116° |
| 2026-05-06 14:14 | 48.11597 | 16.56862 | 619 ft | 1 kts | 116° |
| 2026-05-06 14:14 | 48.11583 | 16.56905 | 609 ft | 8 kts | 116° |
| 2026-05-06 14:14 | 48.11556 | 16.56988 | 611 ft | 10 kts | 115° |
| 2026-05-06 14:15 | 48.11523 | 16.57091 | 617 ft | 12 kts | 116° |
| 2026-05-06 14:15 | 48.11484 | 16.57209 | 619 ft | 14 kts | 116° |
| 2026-05-06 14:15 | 48.11443 | 16.57335 | 622 ft | 10 kts | 116° |
| 2026-05-06 14:15 | 48.11385 | 16.57380 | 612 ft | 11 kts | 189° |
| 2026-05-06 14:16 | 48.11312 | 16.57335 | 609 ft | 12 kts | 194° |
| 2026-05-06 14:16 | 48.11259 | 16.57402 | 612 ft | 11 kts | 116° |
| 2026-05-06 14:16 | 48.11222 | 16.57517 | 614 ft | 13 kts | 116° |
| 2026-05-06 14:16 | 48.11179 | 16.57647 | 620 ft | 14 kts | 116° |
| 2026-05-06 14:17 | 48.11134 | 16.57784 | 620 ft | 14 kts | 116° |
| 2026-05-06 14:17 | 48.11095 | 16.57905 | 618 ft | 10 kts | 115° |
| 2026-05-06 14:17 | 48.11079 | 16.57956 | 618 ft | 1 kts | 115° |
| 2026-05-06 14:17 | 48.11073 | 16.57974 | 614 ft | 4 kts | 115° |
| 2026-05-06 14:18 | 48.11053 | 16.58037 | 620 ft | 9 kts | 115° |
| 2026-05-06 14:18 | 48.11006 | 16.58152 | 615 ft | 17 kts | 127° |
| 2026-05-06 14:18 | 48.10880 | 16.58282 | 612 ft | 33 kts | 161° |
| 2026-05-06 14:18 | 48.10425 | 16.58474 | 615 ft | 100 kts | 164° |
| 2026-05-06 14:19 | 48.09595 | 16.58819 | 781 ft | 134 kts | 166° |
| 2026-05-06 14:19 | 48.08696 | 16.59198 | 1407 ft | 135 kts | 166° |
| 2026-05-06 14:19 | 48.07785 | 16.59596 | 1935 ft | 143 kts | 167° |
| 2026-05-06 14:19 | 48.06769 | 16.60025 | 2330 ft | 160 kts | 167° |
| 2026-05-06 14:20 | 48.05640 | 16.60495 | 2679 ft | 178 kts | 168° |
| 2026-05-06 14:20 | 48.04386 | 16.61018 | 3031 ft | 197 kts | 168° |
| 2026-05-06 14:20 | 48.02991 | 16.61602 | 3444 ft | 220 kts | 167° |
| 2026-05-06 14:20 | 48.01437 | 16.62252 | 4020 ft | 241 kts | 167° |
| 2026-05-06 14:21 | 47.99795 | 16.62943 | 4893 ft | 248 kts | 167° |
| 2026-05-06 14:21 | 47.98088 | 16.63360 | 5854 ft | 250 kts | 180° |
| 2026-05-06 14:21 | 47.96342 | 16.63283 | 6749 ft | 253 kts | 185° |
| 2026-05-06 14:21 | 47.94568 | 16.63174 | 7625 ft | 257 kts | 185° |
| 2026-05-06 14:22 | 47.92760 | 16.63061 | 8464 ft | 263 kts | 185° |
| 2026-05-06 14:22 | 47.90917 | 16.62944 | 9334 ft | 268 kts | 186° |
| 2026-05-06 14:22 | 47.89044 | 16.62823 | 10156 ft | 272 kts | 186° |
| 2026-05-06 14:22 | 47.87071 | 16.62690 | 10482 ft | 296 kts | 186° |
| 2026-05-06 14:23 | 47.84930 | 16.62543 | 10784 ft | 320 kts | 186° |
| 2026-05-06 14:23 | 47.82626 | 16.62391 | 11004 ft | 343 kts | 185° |
| 2026-05-06 14:23 | 47.80171 | 16.62239 | 11316 ft | 361 kts | 185° |
| 2026-05-06 14:23 | 47.77634 | 16.62094 | 11926 ft | 367 kts | 185° |
| 2026-05-06 14:24 | 47.75066 | 16.61948 | 12638 ft | 372 kts | 185° |
| 2026-05-06 14:24 | 47.72468 | 16.61794 | 13374 ft | 376 kts | 185° |
| 2026-05-06 14:24 | 47.69842 | 16.61630 | 14012 ft | 380 kts | 185° |
| 2026-05-06 14:24 | 47.67185 | 16.61463 | 14655 ft | 384 kts | 185° |
| 2026-05-06 14:25 | 47.64507 | 16.61294 | 15275 ft | 387 kts | 185° |
| 2026-05-06 14:25 | 47.61797 | 16.61125 | 15867 ft | 392 kts | 185° |
| 2026-05-06 14:25 | 47.59064 | 16.60959 | 16460 ft | 395 kts | 185° |
| 2026-05-06 14:25 | 47.56300 | 16.60792 | 17015 ft | 399 kts | 185° |
| 2026-05-06 14:26 | 47.53512 | 16.60623 | 17567 ft | 403 kts | 185° |
| 2026-05-06 14:26 | 47.50698 | 16.60450 | 18116 ft | 407 kts | 185° |
| 2026-05-06 14:26 | 47.47857 | 16.60277 | 18575 ft | 411 kts | 185° |
| 2026-05-06 14:26 | 47.44992 | 16.60106 | 19052 ft | 413 kts | 185° |
| 2026-05-06 14:27 | 47.43088 | 16.59992 | 19362 ft | 415 kts | 185° |
| 2026-05-06 14:27 | 47.40188 | 16.59921 | 19812 ft | 418 kts | 183° |
| 2026-05-06 14:27 | 47.37271 | 16.59998 | 20247 ft | 421 kts | 181° |
| 2026-05-06 14:27 | 47.34327 | 16.60166 | 20670 ft | 424 kts | 180° |
| 2026-05-06 14:28 | 47.31374 | 16.60365 | 21087 ft | 426 kts | 180° |
| 2026-05-06 14:28 | 47.28401 | 16.60565 | 21484 ft | 429 kts | 180° |
| 2026-05-06 14:28 | 47.25414 | 16.60740 | 21873 ft | 431 kts | 181° |
| 2026-05-06 14:28 | 47.22413 | 16.60887 | 22258 ft | 433 kts | 181° |
| 2026-05-06 14:29 | 47.19392 | 16.61017 | 22627 ft | 435 kts | 181° |
| 2026-05-06 14:29 | 47.16358 | 16.61142 | 22996 ft | 437 kts | 181° |
| 2026-05-06 14:29 | 47.13307 | 16.61260 | 23356 ft | 439 kts | 181° |
| 2026-05-06 14:29 | 47.10249 | 16.61380 | 23647 ft | 441 kts | 181° |
| 2026-05-06 14:30 | 47.07172 | 16.61507 | 23926 ft | 443 kts | 181° |
| 2026-05-06 14:30 | 47.04081 | 16.61643 | 24206 ft | 445 kts | 181° |
| 2026-05-06 14:30 | 47.00977 | 16.61784 | 24481 ft | 447 kts | 181° |
| 2026-05-06 14:30 | 46.97868 | 16.61923 | 24741 ft | 448 kts | 181° |
| 2026-05-06 14:31 | 46.94743 | 16.62062 | 24988 ft | 450 kts | 181° |
| 2026-05-06 14:31 | 46.91610 | 16.62197 | 25234 ft | 451 kts | 181° |
| 2026-05-06 14:31 | 46.88464 | 16.62329 | 25467 ft | 453 kts | 181° |
| 2026-05-06 14:31 | 46.85314 | 16.62463 | 25677 ft | 454 kts | 181° |
| 2026-05-06 14:32 | 46.82150 | 16.62599 | 25881 ft | 456 kts | 181° |
| 2026-05-06 14:32 | 46.78978 | 16.63039 | 26063 ft | 460 kts | 176° |
| 2026-05-06 14:32 | 46.75802 | 16.63642 | 26234 ft | 461 kts | 176° |
| 2026-05-06 14:32 | 46.72627 | 16.64249 | 26471 ft | 460 kts | 176° |
| 2026-05-06 14:33 | 46.69454 | 16.64855 | 26724 ft | 460 kts | 176° |
| 2026-05-06 14:33 | 46.66287 | 16.65462 | 26970 ft | 459 kts | 176° |
| 2026-05-06 14:33 | 46.63119 | 16.66071 | 27217 ft | 459 kts | 176° |
| 2026-05-06 14:33 | 46.59955 | 16.66679 | 27464 ft | 458 kts | 176° |
| 2026-05-06 14:34 | 46.56796 | 16.67280 | 27712 ft | 458 kts | 176° |
| 2026-05-06 14:34 | 46.53595 | 16.67886 | 27961 ft | 458 kts | 176° |
| 2026-05-06 14:34 | 46.50481 | 16.68474 | 28222 ft | 457 kts | 176° |
| 2026-05-06 14:34 | 46.47328 | 16.69071 | 28491 ft | 457 kts | 176° |
| 2026-05-06 14:35 | 46.44175 | 16.69488 | 28759 ft | 453 kts | 183° |
| 2026-05-06 14:35 | 46.41055 | 16.69197 | 29035 ft | 447 kts | 192° |
| 2026-05-06 14:35 | 46.38002 | 16.68176 | 29292 ft | 443 kts | 201° |
| 2026-05-06 14:35 | 46.35194 | 16.66535 | 29557 ft | 439 kts | 208° |
| 2026-05-06 14:36 | 46.32436 | 16.64635 | 29837 ft | 439 kts | 208° |
| 2026-05-06 14:36 | 46.29645 | 16.62719 | 30101 ft | 438 kts | 208° |
| 2026-05-06 14:36 | 46.26892 | 16.60833 | 30358 ft | 437 kts | 208° |
| 2026-05-06 14:36 | 46.24149 | 16.58957 | 30618 ft | 436 kts | 208° |
| 2026-05-06 14:37 | 46.21413 | 16.57088 | 30880 ft | 434 kts | 208° |
| 2026-05-06 14:37 | 46.18686 | 16.55225 | 31144 ft | 433 kts | 208° |
| 2026-05-06 14:37 | 46.15965 | 16.53367 | 31413 ft | 432 kts | 208° |
| 2026-05-06 14:37 | 46.13259 | 16.51522 | 31694 ft | 430 kts | 208° |
| 2026-05-06 14:38 | 46.10556 | 16.49683 | 31978 ft | 429 kts | 208° |
| 2026-05-06 14:38 | 46.07863 | 16.47853 | 32264 ft | 427 kts | 208° |
| 2026-05-06 14:38 | 46.05180 | 16.46033 | 32531 ft | 425 kts | 208° |
| 2026-05-06 14:38 | 46.02506 | 16.44219 | 32811 ft | 424 kts | 208° |
| 2026-05-06 14:39 | 45.99843 | 16.42413 | 33096 ft | 422 kts | 208° |
| 2026-05-06 14:39 | 45.97189 | 16.40617 | 33384 ft | 421 kts | 208° |
| 2026-05-06 14:39 | 45.94544 | 16.38830 | 33649 ft | 419 kts | 208° |
| 2026-05-06 14:39 | 45.91912 | 16.37051 | 33938 ft | 418 kts | 208° |
| 2026-05-06 14:40 | 45.89314 | 16.35295 | 34185 ft | 417 kts | 208° |
| 2026-05-06 14:40 | 45.86694 | 16.33525 | 34398 ft | 416 kts | 208° |
| 2026-05-06 14:40 | 45.84040 | 16.31740 | 34614 ft | 416 kts | 208° |
| 2026-05-06 14:40 | 45.81420 | 16.29981 | 34834 ft | 416 kts | 208° |
| 2026-05-06 14:41 | 45.78803 | 16.28230 | 35045 ft | 415 kts | 207° |
| 2026-05-06 14:41 | 45.76186 | 16.26480 | 35247 ft | 415 kts | 207° |
| 2026-05-06 14:41 | 45.73569 | 16.24731 | 35446 ft | 415 kts | 207° |
| 2026-05-06 14:41 | 45.70957 | 16.22979 | 35633 ft | 415 kts | 207° |
| 2026-05-06 14:42 | 45.68346 | 16.21227 | 35819 ft | 414 kts | 207° |
| 2026-05-06 14:42 | 45.65730 | 16.19478 | 35909 ft | 415 kts | 207° |
| 2026-05-06 14:42 | 45.60529 | 16.15996 | 35924 ft | 416 kts | 207° |
| 2026-05-06 14:43 | 45.55258 | 16.12478 | 35925 ft | 416 kts | 207° |
| 2026-05-06 14:43 | 45.50016 | 16.08985 | 35926 ft | 416 kts | 207° |
| 2026-05-06 14:44 | 45.44767 | 16.05511 | 35933 ft | 416 kts | 207° |
| 2026-05-06 14:45 | 45.36899 | 16.00300 | 35939 ft | 416 kts | 207° |
| 2026-05-06 14:45 | 45.31647 | 15.96837 | 35942 ft | 416 kts | 207° |
| 2026-05-06 14:46 | 45.26389 | 15.93377 | 35945 ft | 416 kts | 207° |
| 2026-05-06 14:46 | 45.20884 | 15.90815 | 35949 ft | 421 kts | 191° |
| 2026-05-06 14:47 | 45.14998 | 15.90355 | 35952 ft | 425 kts | 186° |
| 2026-05-06 14:47 | 45.09091 | 15.90057 | 35952 ft | 424 kts | 186° |
| 2026-05-06 14:48 | 45.03191 | 15.89745 | 35951 ft | 425 kts | 186° |
| 2026-05-06 14:48 | 44.97281 | 15.89438 | 35956 ft | 425 kts | 186° |
| 2026-05-06 14:49 | 44.91374 | 15.89144 | 35960 ft | 425 kts | 186° |
| 2026-05-06 14:49 | 44.85459 | 15.88848 | 35967 ft | 425 kts | 186° |
| 2026-05-06 14:49 | 44.82511 | 15.88696 | 35810 ft | 421 kts | 186° |
| 2026-05-06 14:50 | 44.79625 | 15.88553 | 35558 ft | 409 kts | 186° |
| 2026-05-06 14:50 | 44.76809 | 15.88414 | 35310 ft | 401 kts | 186° |
| 2026-05-06 14:50 | 44.74031 | 15.88274 | 35060 ft | 398 kts | 186° |
| 2026-05-06 14:50 | 44.71274 | 15.88133 | 34816 ft | 395 kts | 186° |
| 2026-05-06 14:51 | 44.68532 | 15.87991 | 34569 ft | 394 kts | 186° |
| 2026-05-06 14:51 | 44.65796 | 15.87850 | 34327 ft | 393 kts | 186° |
| 2026-05-06 14:51 | 44.63070 | 15.87712 | 34091 ft | 391 kts | 186° |
| 2026-05-06 14:51 | 44.60351 | 15.87576 | 33835 ft | 390 kts | 186° |
| 2026-05-06 14:52 | 44.57649 | 15.87440 | 33558 ft | 389 kts | 186° |
| 2026-05-06 14:52 | 44.54941 | 15.87302 | 32814 ft | 393 kts | 186° |
| 2026-05-06 14:52 | 44.52211 | 15.87159 | 32337 ft | 389 kts | 186° |
| 2026-05-06 14:52 | 44.49536 | 15.87025 | 31762 ft | 382 kts | 187° |
| 2026-05-06 14:53 | 44.46893 | 15.86901 | 31228 ft | 379 kts | 185° |
| 2026-05-06 14:53 | 44.44187 | 15.86949 | 29924 ft | 400 kts | 183° |
| 2026-05-06 14:53 | 44.41317 | 15.87121 | 29031 ft | 424 kts | 181° |
| 2026-05-06 14:53 | 44.38307 | 15.87372 | 28261 ft | 442 kts | 180° |
| 2026-05-06 14:54 | 44.35211 | 15.87664 | 27486 ft | 449 kts | 180° |
| 2026-05-06 14:54 | 44.32088 | 15.87965 | 26224 ft | 452 kts | 180° |
| 2026-05-06 14:54 | 44.28939 | 15.88250 | 25197 ft | 456 kts | 180° |
| 2026-05-06 14:54 | 44.25754 | 15.88515 | 24549 ft | 460 kts | 180° |
| 2026-05-06 14:55 | 44.22547 | 15.88767 | 23913 ft | 461 kts | 180° |
| 2026-05-06 14:55 | 44.19368 | 15.89012 | 23033 ft | 454 kts | 180° |
| 2026-05-06 14:55 | 44.16229 | 15.89255 | 22070 ft | 448 kts | 180° |
| 2026-05-06 14:55 | 44.13133 | 15.89493 | 21187 ft | 443 kts | 180° |
| 2026-05-06 14:56 | 44.10074 | 15.89725 | 20328 ft | 437 kts | 180° |
| 2026-05-06 14:56 | 44.07052 | 15.89953 | 19526 ft | 432 kts | 180° |
| 2026-05-06 14:56 | 44.04060 | 15.90178 | 18748 ft | 428 kts | 180° |
| 2026-05-06 14:56 | 44.01105 | 15.90401 | 17975 ft | 422 kts | 179° |
| 2026-05-06 14:57 | 43.98195 | 15.90624 | 16923 ft | 416 kts | 179° |
| 2026-05-06 14:57 | 43.95330 | 15.90847 | 15923 ft | 410 kts | 179° |
| 2026-05-06 14:57 | 43.92502 | 15.91067 | 15029 ft | 404 kts | 180° |
| 2026-05-06 14:57 | 43.89713 | 15.91283 | 14149 ft | 399 kts | 180° |
| 2026-05-06 14:58 | 43.86961 | 15.91493 | 13227 ft | 393 kts | 180° |
| 2026-05-06 14:58 | 43.84249 | 15.91699 | 12288 ft | 388 kts | 180° |
| 2026-05-06 14:58 | 43.81570 | 15.91903 | 11508 ft | 384 kts | 179° |
| 2026-05-06 14:58 | 43.78919 | 15.92107 | 10820 ft | 379 kts | 179° |
| 2026-05-06 14:59 | 43.76316 | 15.92310 | 10464 ft | 366 kts | 179° |
| 2026-05-06 14:59 | 43.73837 | 15.92509 | 10343 ft | 347 kts | 180° |
| 2026-05-06 14:59 | 43.71486 | 15.92694 | 10222 ft | 330 kts | 179° |
| 2026-05-06 14:59 | 43.69249 | 15.92867 | 10109 ft | 314 kts | 180° |
| 2026-05-06 15:00 | 43.67121 | 15.93028 | 9983 ft | 297 kts | 180° |
| 2026-05-06 15:00 | 43.65117 | 15.93177 | 9828 ft | 280 kts | 180° |
| 2026-05-06 15:00 | 43.63195 | 15.93319 | 9521 ft | 274 kts | 180° |
| 2026-05-06 15:00 | 43.61311 | 15.93457 | 9006 ft | 270 kts | 180° |
| 2026-05-06 15:01 | 43.59438 | 15.93592 | 8436 ft | 268 kts | 180° |
| 2026-05-06 15:01 | 43.57584 | 15.93728 | 7864 ft | 266 kts | 180° |
| 2026-05-06 15:01 | 43.55737 | 15.93864 | 7337 ft | 264 kts | 179° |
| 2026-05-06 15:01 | 43.53914 | 15.93999 | 6825 ft | 260 kts | 179° |
| 2026-05-06 15:02 | 43.52121 | 15.94135 | 6313 ft | 257 kts | 179° |
| 2026-05-06 15:02 | 43.50350 | 15.94287 | 5805 ft | 252 kts | 175° |
| 2026-05-06 15:02 | 43.48670 | 15.94900 | 5379 ft | 249 kts | 160° |
| 2026-05-06 15:02 | 43.47191 | 15.96113 | 4975 ft | 247 kts | 145° |
| 2026-05-06 15:03 | 43.45848 | 15.97551 | 4576 ft | 242 kts | 146° |
| 2026-05-06 15:03 | 43.44533 | 15.98945 | 4252 ft | 234 kts | 145° |
| 2026-05-06 15:03 | 43.43263 | 16.00290 | 3952 ft | 226 kts | 145° |
| 2026-05-06 15:03 | 43.42036 | 16.01586 | 3649 ft | 218 kts | 145° |
| 2026-05-06 15:04 | 43.40888 | 16.02894 | 3409 ft | 213 kts | 133° |
| 2026-05-06 15:04 | 43.40386 | 16.04789 | 3168 ft | 220 kts | 92° |
| 2026-05-06 15:04 | 43.40924 | 16.06776 | 2922 ft | 227 kts | 63° |
| 2026-05-06 15:04 | 43.41830 | 16.08509 | 2797 ft | 219 kts | 58° |
| 2026-05-06 15:05 | 43.42472 | 16.09547 | 2786 ft | 211 kts | 55° |
| 2026-05-06 15:05 | 43.43388 | 16.11031 | 2810 ft | 197 kts | 58° |
| 2026-05-06 15:05 | 43.44229 | 16.12494 | 2816 ft | 194 kts | 60° |
| 2026-05-06 15:05 | 43.45049 | 16.13952 | 2680 ft | 189 kts | 60° |
| 2026-05-06 15:06 | 43.45832 | 16.15348 | 2463 ft | 182 kts | 60° |
| 2026-05-06 15:06 | 43.46596 | 16.16712 | 2245 ft | 177 kts | 61° |
| 2026-05-06 15:06 | 43.47334 | 16.18031 | 2021 ft | 168 kts | 61° |
| 2026-05-06 15:06 | 43.48011 | 16.19235 | 1822 ft | 149 kts | 63° |
| 2026-05-06 15:07 | 43.48619 | 16.20322 | 1617 ft | 139 kts | 63° |
| 2026-05-06 15:07 | 43.49199 | 16.21366 | 1421 ft | 137 kts | 63° |
| 2026-05-06 15:07 | 43.49775 | 16.22402 | 1240 ft | 135 kts | 62° |
| 2026-05-06 15:07 | 43.50345 | 16.23421 | 1048 ft | 133 kts | 62° |
| 2026-05-06 15:08 | 43.50902 | 16.24420 | 848 ft | 134 kts | 57° |
| 2026-05-06 15:08 | 43.51465 | 16.25431 | 685 ft | 135 kts | 60° |
| 2026-05-06 15:08 | 43.52046 | 16.26476 | 494 ft | 136 kts | 60° |
| 2026-05-06 15:08 | 43.52611 | 16.27497 | 330 ft | 135 kts | 57° |
| 2026-05-06 15:09 | 43.53175 | 16.28501 | 127 ft | 132 kts | 57° |
| 2026-05-06 15:09 | 43.53690 | 16.29431 | 81 ft | 102 kts | 52° |
| 2026-05-06 15:09 | 43.53960 | 16.29915 | 71 ft | 42 kts | 52° |
| 2026-05-06 15:09 | 43.54045 | 16.30068 | 61 ft | 10 kts | 60° |
| 2026-05-06 15:10 | 43.54016 | 16.30103 | 64 ft | 8 kts | 191° |
| 2026-05-06 15:10 | 43.53978 | 16.30087 | 59 ft | 4 kts | 196° |
| 2026-05-06 15:10 | 43.53932 | 16.30070 | 68 ft | 11 kts | 196° |
| 2026-05-06 15:10 | 43.53878 | 16.30008 | 65 ft | 10 kts | 232° |
| 2026-05-06 15:11 | 43.53838 | 16.29937 | 68 ft | 9 kts | 232° |
| 2026-05-06 15:11 | 43.53802 | 16.29871 | 68 ft | 9 kts | 233° |
| 2026-05-06 15:11 | 43.53763 | 16.29801 | 68 ft | 10 kts | 233° |
| 2026-05-06 15:11 | 43.53729 | 16.29740 | 68 ft | 5 kts | 230° |
| 2026-05-06 15:12 | 43.53713 | 16.29750 | 66 ft | 2 kts | 114° |
| 2026-05-06 15:12 | 43.53702 | 16.29789 | 64 ft | 5 kts | 114° |
| 2026-05-06 15:12 | 43.53695 | 16.29810 | 65 ft | 0 kts | 114° |